sensor_id;sensor_type;location;lat;lon;timestamp;P1;durP1;ratioP1;P2;durP2;ratioP2
54937;SDS011;52756;52.826;6.214;2023-01-08T00:01:23;4.90;;;2.70;;
54937;SDS011;52756;52.826;6.214;2023-01-08T00:03:48;6.38;;;3.15;;
54937;SDS011;52756;52.826;6.214;2023-01-08T00:06:15;4.45;;;2.42;;
54937;SDS011;52756;52.826;6.214;2023-01-08T00:08:44;4.20;;;2.45;;
54937;SDS011;52756;52.826;6.214;2023-01-08T00:11:09;3.83;;;2.47;;
54937;SDS011;52756;52.826;6.214;2023-01-08T00:13:36;4.50;;;2.67;;
54937;SDS011;52756;52.826;6.214;2023-01-08T00:16:06;3.70;;;2.42;;
54937;SDS011;52756;52.826;6.214;2023-01-08T00:18:33;5.25;;;2.50;;
54937;SDS011;52756;52.826;6.214;2023-01-08T00:20:59;4.05;;;2.90;;
54937;SDS011;52756;52.826;6.214;2023-01-08T00:23:25;3.80;;;2.70;;
54937;SDS011;52756;52.826;6.214;2023-01-08T00:25:51;3.88;;;3.08;;
54937;SDS011;52756;52.826;6.214;2023-01-08T00:28:17;4.68;;;2.72;;
54937;SDS011;52756;52.826;6.214;2023-01-08T00:30:44;6.25;;;2.85;;
54937;SDS011;52756;52.826;6.214;2023-01-08T00:33:11;5.20;;;3.10;;
54937;SDS011;52756;52.826;6.214;2023-01-08T00:35:37;5.70;;;2.75;;
54937;SDS011;52756;52.826;6.214;2023-01-08T00:38:03;5.07;;;3.20;;
54937;SDS011;52756;52.826;6.214;2023-01-08T00:40:29;6.05;;;2.75;;
54937;SDS011;52756;52.826;6.214;2023-01-08T00:42:56;6.22;;;2.90;;
54937;SDS011;52756;52.826;6.214;2023-01-08T00:45:22;4.13;;;2.35;;
54937;SDS011;52756;52.826;6.214;2023-01-08T00:47:47;4.25;;;3.03;;
54937;SDS011;52756;52.826;6.214;2023-01-08T00:50:13;3.88;;;2.70;;
54937;SDS011;52756;52.826;6.214;2023-01-08T00:52:40;5.65;;;3.28;;
54937;SDS011;52756;52.826;6.214;2023-01-08T00:55:06;4.40;;;2.95;;
54937;SDS011;52756;52.826;6.214;2023-01-08T00:57:33;4.38;;;3.10;;
54937;SDS011;52756;52.826;6.214;2023-01-08T00:59:59;5.20;;;2.67;;
54937;SDS011;52756;52.826;6.214;2023-01-08T01:02:25;5.25;;;2.90;;
54937;SDS011;52756;52.826;6.214;2023-01-08T01:04:52;5.93;;;2.90;;
54937;SDS011;52756;52.826;6.214;2023-01-08T01:07:18;4.22;;;2.60;;
54937;SDS011;52756;52.826;6.214;2023-01-08T01:09:43;5.90;;;2.20;;
54937;SDS011;52756;52.826;6.214;2023-01-08T01:12:09;4.72;;;2.13;;
54937;SDS011;52756;52.826;6.214;2023-01-08T01:14:36;5.00;;;2.00;;
54937;SDS011;52756;52.826;6.214;2023-01-08T01:17:02;4.43;;;1.42;;
54937;SDS011;52756;52.826;6.214;2023-01-08T01:19:28;6.38;;;1.73;;
54937;SDS011;52756;52.826;6.214;2023-01-08T01:21:54;4.43;;;1.58;;
54937;SDS011;52756;52.826;6.214;2023-01-08T01:24:20;3.60;;;1.58;;
54937;SDS011;52756;52.826;6.214;2023-01-08T01:26:49;6.53;;;1.92;;
54937;SDS011;52756;52.826;6.214;2023-01-08T01:29:15;5.43;;;1.50;;
54937;SDS011;52756;52.826;6.214;2023-01-08T01:31:41;3.67;;;1.30;;
54937;SDS011;52756;52.826;6.214;2023-01-08T01:34:07;5.28;;;1.80;;
54937;SDS011;52756;52.826;6.214;2023-01-08T01:36:34;3.67;;;1.40;;
54937;SDS011;52756;52.826;6.214;2023-01-08T01:39:00;4.25;;;1.58;;
54937;SDS011;52756;52.826;6.214;2023-01-08T01:41:30;7.63;;;1.48;;
54937;SDS011;52756;52.826;6.214;2023-01-08T01:44:32;7.10;;;1.40;;
54937;SDS011;52756;52.826;6.214;2023-01-08T01:47:25;9.10;;;1.63;;
54937;SDS011;52756;52.826;6.214;2023-01-08T01:52:21;4.93;;;1.50;;
54937;SDS011;52756;52.826;6.214;2023-01-08T01:54:49;6.43;;;1.58;;
54937;SDS011;52756;52.826;6.214;2023-01-08T01:57:16;4.53;;;1.58;;
54937;SDS011;52756;52.826;6.214;2023-01-08T01:59:41;7.97;;;1.88;;
54937;SDS011;52756;52.826;6.214;2023-01-08T02:02:08;6.25;;;1.65;;
54937;SDS011;52756;52.826;6.214;2023-01-08T02:04:34;7.07;;;2.08;;
54937;SDS011;52756;52.826;6.214;2023-01-08T02:07:02;6.82;;;1.67;;
54937;SDS011;52756;52.826;6.214;2023-01-08T02:09:47;5.68;;;1.83;;
54937;SDS011;52756;52.826;6.214;2023-01-08T02:12:47;5.88;;;1.70;;
54937;SDS011;52756;52.826;6.214;2023-01-08T02:15:23;7.03;;;2.28;;
54937;SDS011;52756;52.826;6.214;2023-01-08T02:20:34;6.47;;;1.40;;
54937;SDS011;52756;52.826;6.214;2023-01-08T02:28:02;10.02;;;1.73;;
54937;SDS011;52756;52.826;6.214;2023-01-08T02:30:33;8.98;;;1.75;;
54937;SDS011;52756;52.826;6.214;2023-01-08T02:32:59;8.55;;;1.90;;
54937;SDS011;52756;52.826;6.214;2023-01-08T02:35:39;8.68;;;1.52;;
54937;SDS011;52756;52.826;6.214;2023-01-08T02:38:12;6.60;;;1.52;;
54937;SDS011;52756;52.826;6.214;2023-01-08T02:43:25;8.63;;;1.55;;
54937;SDS011;52756;52.826;6.214;2023-01-08T02:45:59;10.15;;;1.73;;
54937;SDS011;52756;52.826;6.214;2023-01-08T02:51:06;8.57;;;1.35;;
54937;SDS011;52756;52.826;6.214;2023-01-08T02:53:36;8.52;;;1.67;;
54937;SDS011;52756;52.826;6.214;2023-01-08T02:56:07;5.32;;;1.48;;
54937;SDS011;52756;52.826;6.214;2023-01-08T02:58:36;7.22;;;1.67;;
54937;SDS011;52756;52.826;6.214;2023-01-08T03:01:05;5.45;;;1.60;;
54937;SDS011;52756;52.826;6.214;2023-01-08T03:03:33;6.25;;;1.38;;
54937;SDS011;52756;52.826;6.214;2023-01-08T03:06:03;5.55;;;1.70;;
54937;SDS011;52756;52.826;6.214;2023-01-08T03:08:36;6.45;;;1.60;;
54937;SDS011;52756;52.826;6.214;2023-01-08T03:11:11;7.38;;;2.20;;
54937;SDS011;52756;52.826;6.214;2023-01-08T03:16:24;8.27;;;1.52;;
54937;SDS011;52756;52.826;6.214;2023-01-08T03:19:02;7.40;;;1.83;;
54937;SDS011;52756;52.826;6.214;2023-01-08T03:21:33;5.60;;;2.47;;
54937;SDS011;52756;52.826;6.214;2023-01-08T03:24:01;5.57;;;1.90;;
54937;SDS011;52756;52.826;6.214;2023-01-08T03:26:28;5.10;;;1.90;;
54937;SDS011;52756;52.826;6.214;2023-01-08T03:28:56;5.18;;;1.92;;
54937;SDS011;52756;52.826;6.214;2023-01-08T03:31:22;6.32;;;2.10;;
54937;SDS011;52756;52.826;6.214;2023-01-08T03:33:51;3.47;;;1.67;;
54937;SDS011;52756;52.826;6.214;2023-01-08T03:36:20;4.78;;;2.03;;
54937;SDS011;52756;52.826;6.214;2023-01-08T03:38:53;5.38;;;2.10;;
54937;SDS011;52756;52.826;6.214;2023-01-08T03:41:24;7.03;;;2.45;;
54937;SDS011;52756;52.826;6.214;2023-01-08T03:43:53;4.53;;;2.30;;
54937;SDS011;52756;52.826;6.214;2023-01-08T03:46:26;5.28;;;2.30;;
54937;SDS011;52756;52.826;6.214;2023-01-08T03:48:57;5.90;;;2.72;;
54937;SDS011;52756;52.826;6.214;2023-01-08T03:51:24;7.40;;;2.83;;
54937;SDS011;52756;52.826;6.214;2023-01-08T03:53:51;7.15;;;2.58;;
54937;SDS011;52756;52.826;6.214;2023-01-08T03:56:20;6.90;;;2.75;;
54937;SDS011;52756;52.826;6.214;2023-01-08T03:58:46;6.18;;;2.63;;
54937;SDS011;52756;52.826;6.214;2023-01-08T04:01:12;6.18;;;2.92;;
54937;SDS011;52756;52.826;6.214;2023-01-08T04:03:38;7.75;;;2.55;;
54937;SDS011;52756;52.826;6.214;2023-01-08T04:06:03;4.90;;;2.50;;
54937;SDS011;52756;52.826;6.214;2023-01-08T04:08:29;5.38;;;2.75;;
54937;SDS011;52756;52.826;6.214;2023-01-08T04:10:55;6.25;;;2.38;;
54937;SDS011;52756;52.826;6.214;2023-01-08T04:13:20;6.40;;;2.58;;
54937;SDS011;52756;52.826;6.214;2023-01-08T04:15:47;4.60;;;2.35;;
54937;SDS011;52756;52.826;6.214;2023-01-08T04:18:13;7.97;;;2.83;;
54937;SDS011;52756;52.826;6.214;2023-01-08T04:20:39;4.18;;;2.33;;
54937;SDS011;52756;52.826;6.214;2023-01-08T04:23:08;5.45;;;2.50;;
54937;SDS011;52756;52.826;6.214;2023-01-08T04:25:35;5.80;;;2.05;;
54937;SDS011;52756;52.826;6.214;2023-01-08T04:28:02;6.35;;;2.22;;
54937;SDS011;52756;52.826;6.214;2023-01-08T04:30:28;4.55;;;2.30;;
54937;SDS011;52756;52.826;6.214;2023-01-08T04:32:54;7.72;;;2.67;;
54937;SDS011;52756;52.826;6.214;2023-01-08T04:35:19;7.40;;;2.45;;
54937;SDS011;52756;52.826;6.214;2023-01-08T04:37:45;4.53;;;1.92;;
54937;SDS011;52756;52.826;6.214;2023-01-08T04:40:11;3.60;;;2.03;;
54937;SDS011;52756;52.826;6.214;2023-01-08T04:42:36;5.53;;;2.00;;
54937;SDS011;52756;52.826;6.214;2023-01-08T04:45:02;4.85;;;1.80;;
54937;SDS011;52756;52.826;6.214;2023-01-08T04:47:29;7.68;;;2.20;;
54937;SDS011;52756;52.826;6.214;2023-01-08T04:49:55;4.47;;;1.88;;
54937;SDS011;52756;52.826;6.214;2023-01-08T04:52:20;7.97;;;2.67;;
54937;SDS011;52756;52.826;6.214;2023-01-08T04:54:46;5.28;;;2.03;;
54937;SDS011;52756;52.826;6.214;2023-01-08T04:57:12;3.45;;;1.50;;
54937;SDS011;52756;52.826;6.214;2023-01-08T04:59:37;4.82;;;2.25;;
54937;SDS011;52756;52.826;6.214;2023-01-08T05:02:03;4.93;;;2.00;;
54937;SDS011;52756;52.826;6.214;2023-01-08T05:04:29;2.83;;;1.55;;
54937;SDS011;52756;52.826;6.214;2023-01-08T05:06:54;3.65;;;1.60;;
54937;SDS011;52756;52.826;6.214;2023-01-08T05:09:20;3.80;;;2.30;;
54937;SDS011;52756;52.826;6.214;2023-01-08T05:11:46;3.40;;;1.80;;
54937;SDS011;52756;52.826;6.214;2023-01-08T05:14:12;5.72;;;1.70;;
54937;SDS011;52756;52.826;6.214;2023-01-08T05:16:39;3.67;;;1.60;;
54937;SDS011;52756;52.826;6.214;2023-01-08T05:19:05;5.13;;;1.90;;
54937;SDS011;52756;52.826;6.214;2023-01-08T05:21:30;4.95;;;1.35;;
54937;SDS011;52756;52.826;6.214;2023-01-08T05:23:56;4.32;;;1.90;;
54937;SDS011;52756;52.826;6.214;2023-01-08T05:26:22;4.07;;;1.88;;
54937;SDS011;52756;52.826;6.214;2023-01-08T05:28:47;3.28;;;1.75;;
54937;SDS011;52756;52.826;6.214;2023-01-08T05:31:14;5.00;;;1.88;;
54937;SDS011;52756;52.826;6.214;2023-01-08T05:33:40;3.45;;;1.63;;
54937;SDS011;52756;52.826;6.214;2023-01-08T05:36:06;3.10;;;1.70;;
54937;SDS011;52756;52.826;6.214;2023-01-08T05:38:33;3.65;;;1.67;;
54937;SDS011;52756;52.826;6.214;2023-01-08T05:40:59;3.65;;;2.08;;
54937;SDS011;52756;52.826;6.214;2023-01-08T05:43:25;5.75;;;2.08;;
54937;SDS011;52756;52.826;6.214;2023-01-08T05:45:51;4.00;;;1.90;;
54937;SDS011;52756;52.826;6.214;2023-01-08T05:48:16;4.85;;;1.90;;
54937;SDS011;52756;52.826;6.214;2023-01-08T05:50:42;5.88;;;2.40;;
54937;SDS011;52756;52.826;6.214;2023-01-08T05:53:08;4.07;;;1.63;;
54937;SDS011;52756;52.826;6.214;2023-01-08T05:55:34;4.28;;;2.10;;
54937;SDS011;52756;52.826;6.214;2023-01-08T05:58:01;4.68;;;1.77;;
54937;SDS011;52756;52.826;6.214;2023-01-08T06:00:28;3.50;;;2.00;;
54937;SDS011;52756;52.826;6.214;2023-01-08T06:02:54;7.07;;;1.92;;
54937;SDS011;52756;52.826;6.214;2023-01-08T06:05:20;4.70;;;2.30;;
54937;SDS011;52756;52.826;6.214;2023-01-08T06:07:45;3.38;;;1.80;;
54937;SDS011;52756;52.826;6.214;2023-01-08T06:10:11;4.95;;;1.88;;
54937;SDS011;52756;52.826;6.214;2023-01-08T06:12:37;5.20;;;1.80;;
54937;SDS011;52756;52.826;6.214;2023-01-08T06:15:03;4.47;;;1.95;;
54937;SDS011;52756;52.826;6.214;2023-01-08T06:17:29;6.30;;;1.88;;
54937;SDS011;52756;52.826;6.214;2023-01-08T06:19:56;5.55;;;2.50;;
54937;SDS011;52756;52.826;6.214;2023-01-08T06:22:21;4.43;;;2.05;;
54937;SDS011;52756;52.826;6.214;2023-01-08T06:24:47;4.75;;;1.77;;
54937;SDS011;52756;52.826;6.214;2023-01-08T06:27:13;4.03;;;1.80;;
54937;SDS011;52756;52.826;6.214;2023-01-08T06:29:38;3.17;;;1.60;;
54937;SDS011;52756;52.826;6.214;2023-01-08T06:32:04;4.05;;;1.88;;
54937;SDS011;52756;52.826;6.214;2023-01-08T06:34:30;4.75;;;1.80;;
54937;SDS011;52756;52.826;6.214;2023-01-08T06:36:55;5.22;;;1.55;;
54937;SDS011;52756;52.826;6.214;2023-01-08T06:39:21;3.97;;;1.88;;
54937;SDS011;52756;52.826;6.214;2023-01-08T06:41:47;4.22;;;2.00;;
54937;SDS011;52756;52.826;6.214;2023-01-08T06:44:12;4.30;;;1.52;;
54937;SDS011;52756;52.826;6.214;2023-01-08T06:46:38;4.07;;;1.50;;
54937;SDS011;52756;52.826;6.214;2023-01-08T06:49:07;3.28;;;1.17;;
54937;SDS011;52756;52.826;6.214;2023-01-08T06:51:33;3.85;;;1.45;;
54937;SDS011;52756;52.826;6.214;2023-01-08T06:54:00;4.53;;;1.70;;
54937;SDS011;52756;52.826;6.214;2023-01-08T06:56:25;2.78;;;1.48;;
54937;SDS011;52756;52.826;6.214;2023-01-08T06:58:51;7.15;;;2.35;;
54937;SDS011;52756;52.826;6.214;2023-01-08T07:01:17;5.30;;;1.48;;
54937;SDS011;52756;52.826;6.214;2023-01-08T07:03:43;3.88;;;1.20;;
54937;SDS011;52756;52.826;6.214;2023-01-08T07:06:16;3.83;;;1.67;;
54937;SDS011;52756;52.826;6.214;2023-01-08T07:08:43;4.50;;;1.48;;
54937;SDS011;52756;52.826;6.214;2023-01-08T07:11:09;3.75;;;1.67;;
54937;SDS011;52756;52.826;6.214;2023-01-08T07:13:36;4.90;;;1.70;;
54937;SDS011;52756;52.826;6.214;2023-01-08T07:16:05;5.78;;;2.10;;
54937;SDS011;52756;52.826;6.214;2023-01-08T07:18:32;6.68;;;2.20;;
54937;SDS011;52756;52.826;6.214;2023-01-08T07:20:58;3.85;;;2.10;;
54937;SDS011;52756;52.826;6.214;2023-01-08T07:23:23;4.72;;;1.92;;
54937;SDS011;52756;52.826;6.214;2023-01-08T07:25:49;5.07;;;2.10;;
54937;SDS011;52756;52.826;6.214;2023-01-08T07:28:15;8.70;;;2.47;;
54937;SDS011;52756;52.826;6.214;2023-01-08T07:30:41;6.13;;;2.28;;
54937;SDS011;52756;52.826;6.214;2023-01-08T07:33:07;5.85;;;1.60;;
54937;SDS011;52756;52.826;6.214;2023-01-08T07:35:33;4.88;;;1.80;;
54937;SDS011;52756;52.826;6.214;2023-01-08T07:37:59;8.13;;;1.90;;
54937;SDS011;52756;52.826;6.214;2023-01-08T07:40:25;5.90;;;1.52;;
54937;SDS011;52756;52.826;6.214;2023-01-08T07:43:01;8.68;;;1.80;;
54937;SDS011;52756;52.826;6.214;2023-01-08T07:45:28;2.72;;;1.15;;
54937;SDS011;52756;52.826;6.214;2023-01-08T07:47:57;6.15;;;1.48;;
54937;SDS011;52756;52.826;6.214;2023-01-08T07:50:23;6.40;;;1.67;;
54937;SDS011;52756;52.826;6.214;2023-01-08T07:52:50;6.28;;;1.58;;
54937;SDS011;52756;52.826;6.214;2023-01-08T07:55:15;5.72;;;1.60;;
54937;SDS011;52756;52.826;6.214;2023-01-08T07:57:41;3.90;;;1.50;;
54937;SDS011;52756;52.826;6.214;2023-01-08T08:00:07;7.25;;;1.65;;
54937;SDS011;52756;52.826;6.214;2023-01-08T08:02:33;4.90;;;1.55;;
54937;SDS011;52756;52.826;6.214;2023-01-08T08:04:58;6.25;;;1.63;;
54937;SDS011;52756;52.826;6.214;2023-01-08T08:07:24;5.55;;;1.85;;
54937;SDS011;52756;52.826;6.214;2023-01-08T08:09:50;6.65;;;1.88;;
54937;SDS011;52756;52.826;6.214;2023-01-08T08:12:15;6.28;;;1.80;;
54937;SDS011;52756;52.826;6.214;2023-01-08T08:14:41;9.07;;;1.70;;
54937;SDS011;52756;52.826;6.214;2023-01-08T08:17:07;6.78;;;1.75;;
54937;SDS011;52756;52.826;6.214;2023-01-08T08:19:32;6.70;;;1.80;;
54937;SDS011;52756;52.826;6.214;2023-01-08T08:21:58;5.05;;;1.60;;
54937;SDS011;52756;52.826;6.214;2023-01-08T08:24:24;9.90;;;2.05;;
54937;SDS011;52756;52.826;6.214;2023-01-08T08:26:49;3.47;;;1.55;;
54937;SDS011;52756;52.826;6.214;2023-01-08T08:29:18;3.85;;;1.63;;
54937;SDS011;52756;52.826;6.214;2023-01-08T08:31:44;7.10;;;1.50;;
54937;SDS011;52756;52.826;6.214;2023-01-08T08:34:10;6.38;;;2.13;;
54937;SDS011;52756;52.826;6.214;2023-01-08T08:36:36;6.07;;;1.33;;
54937;SDS011;52756;52.826;6.214;2023-01-08T08:39:01;6.65;;;1.42;;
54937;SDS011;52756;52.826;6.214;2023-01-08T08:41:28;6.72;;;1.48;;
54937;SDS011;52756;52.826;6.214;2023-01-08T08:43:53;9.13;;;1.90;;
54937;SDS011;52756;52.826;6.214;2023-01-08T08:46:19;9.02;;;2.03;;
54937;SDS011;52756;52.826;6.214;2023-01-08T08:48:45;12.25;;;2.78;;
54937;SDS011;52756;52.826;6.214;2023-01-08T08:51:11;4.97;;;1.33;;
54937;SDS011;52756;52.826;6.214;2023-01-08T08:53:37;4.10;;;1.52;;
54937;SDS011;52756;52.826;6.214;2023-01-08T08:56:03;6.25;;;1.42;;
54937;SDS011;52756;52.826;6.214;2023-01-08T08:58:29;6.82;;;1.77;;
54937;SDS011;52756;52.826;6.214;2023-01-08T09:00:59;6.35;;;1.48;;
54937;SDS011;52756;52.826;6.214;2023-01-08T09:03:29;5.35;;;1.40;;
54937;SDS011;52756;52.826;6.214;2023-01-08T09:05:55;4.90;;;1.60;;
54937;SDS011;52756;52.826;6.214;2023-01-08T09:08:20;8.50;;;2.30;;
54937;SDS011;52756;52.826;6.214;2023-01-08T09:10:46;5.28;;;1.80;;
54937;SDS011;52756;52.826;6.214;2023-01-08T09:13:12;5.50;;;1.70;;
54937;SDS011;52756;52.826;6.214;2023-01-08T09:15:37;5.25;;;1.75;;
54937;SDS011;52756;52.826;6.214;2023-01-08T09:18:03;8.13;;;2.22;;
54937;SDS011;52756;52.826;6.214;2023-01-08T09:20:29;5.38;;;1.73;;
54937;SDS011;52756;52.826;6.214;2023-01-08T09:22:59;4.57;;;1.35;;
54937;SDS011;52756;52.826;6.214;2023-01-08T09:25:25;5.10;;;1.23;;
54937;SDS011;52756;52.826;6.214;2023-01-08T09:27:58;6.93;;;1.33;;
54937;SDS011;52756;52.826;6.214;2023-01-08T09:30:29;4.55;;;1.17;;
54937;SDS011;52756;52.826;6.214;2023-01-08T09:32:58;4.63;;;1.30;;
54937;SDS011;52756;52.826;6.214;2023-01-08T09:35:25;8.98;;;2.22;;
54937;SDS011;52756;52.826;6.214;2023-01-08T09:37:52;4.78;;;1.45;;
54937;SDS011;52756;52.826;6.214;2023-01-08T09:40:18;5.60;;;1.73;;
54937;SDS011;52756;52.826;6.214;2023-01-08T09:43:04;7.88;;;1.67;;
54937;SDS011;52756;52.826;6.214;2023-01-08T09:45:31;4.43;;;1.38;;
54937;SDS011;52756;52.826;6.214;2023-01-08T09:48:04;6.38;;;1.70;;
54937;SDS011;52756;52.826;6.214;2023-01-08T09:50:35;5.53;;;1.35;;
54937;SDS011;52756;52.826;6.214;2023-01-08T09:53:01;6.95;;;1.95;;
54937;SDS011;52756;52.826;6.214;2023-01-08T09:55:28;8.30;;;1.77;;
54937;SDS011;52756;52.826;6.214;2023-01-08T09:57:57;7.38;;;2.28;;
54937;SDS011;52756;52.826;6.214;2023-01-08T10:00:28;8.63;;;2.88;;
54937;SDS011;52756;52.826;6.214;2023-01-08T10:02:57;9.85;;;2.42;;
54937;SDS011;52756;52.826;6.214;2023-01-08T10:05:26;6.10;;;1.67;;
54937;SDS011;52756;52.826;6.214;2023-01-08T10:07:53;8.32;;;2.05;;
54937;SDS011;52756;52.826;6.214;2023-01-08T10:10:20;10.15;;;1.85;;
54937;SDS011;52756;52.826;6.214;2023-01-08T10:12:52;9.07;;;1.48;;
54937;SDS011;52756;52.826;6.214;2023-01-08T10:15:19;7.75;;;1.88;;
54937;SDS011;52756;52.826;6.214;2023-01-08T10:18:02;5.60;;;1.45;;
54937;SDS011;52756;52.826;6.214;2023-01-08T10:20:32;4.72;;;1.98;;
54937;SDS011;52756;52.826;6.214;2023-01-08T10:23:13;6.65;;;2.03;;
54937;SDS011;52756;52.826;6.214;2023-01-08T10:25:47;7.10;;;1.60;;
54937;SDS011;52756;52.826;6.214;2023-01-08T10:30:47;12.63;;;1.92;;
54937;SDS011;52756;52.826;6.214;2023-01-08T10:33:20;8.95;;;1.75;;
54937;SDS011;52756;52.826;6.214;2023-01-08T10:35:52;11.55;;;2.53;;
54937;SDS011;52756;52.826;6.214;2023-01-08T10:38:34;9.65;;;1.92;;
54937;SDS011;52756;52.826;6.214;2023-01-08T10:41:04;7.00;;;2.10;;
54937;SDS011;52756;52.826;6.214;2023-01-08T10:48:55;11.73;;;2.10;;
54937;SDS011;52756;52.826;6.214;2023-01-08T10:51:25;9.15;;;2.17;;
54937;SDS011;52756;52.826;6.214;2023-01-08T10:53:53;7.00;;;1.98;;
54937;SDS011;52756;52.826;6.214;2023-01-08T10:56:21;7.97;;;2.00;;
54937;SDS011;52756;52.826;6.214;2023-01-08T10:58:49;8.82;;;1.52;;
54937;SDS011;52756;52.826;6.214;2023-01-08T11:01:22;8.65;;;2.00;;
54937;SDS011;52756;52.826;6.214;2023-01-08T11:03:54;8.52;;;1.67;;
54937;SDS011;52756;52.826;6.214;2023-01-08T11:06:24;9.02;;;1.90;;
54937;SDS011;52756;52.826;6.214;2023-01-08T11:09:01;7.32;;;1.85;;
54937;SDS011;52756;52.826;6.214;2023-01-08T11:11:38;9.05;;;1.90;;
54937;SDS011;52756;52.826;6.214;2023-01-08T11:14:04;9.70;;;2.55;;
54937;SDS011;52756;52.826;6.214;2023-01-08T11:16:40;7.15;;;2.03;;
54937;SDS011;52756;52.826;6.214;2023-01-08T11:19:16;8.77;;;1.95;;
54937;SDS011;52756;52.826;6.214;2023-01-08T11:27:07;9.02;;;1.67;;
54937;SDS011;52756;52.826;6.214;2023-01-08T11:30:12;9.15;;;2.08;;
54937;SDS011;52756;52.826;6.214;2023-01-08T11:35:25;7.72;;;1.98;;
54937;SDS011;52756;52.826;6.214;2023-01-08T11:37:54;10.65;;;2.10;;
54937;SDS011;52756;52.826;6.214;2023-01-08T11:59:32;8.52;;;2.40;;
54937;SDS011;52756;52.826;6.214;2023-01-08T12:02:21;9.88;;;2.65;;
54937;SDS011;52756;52.826;6.214;2023-01-08T12:13:42;12.70;;;2.45;;
54937;SDS011;52756;52.826;6.214;2023-01-08T12:25:09;8.63;;;2.10;;
54937;SDS011;52756;52.826;6.214;2023-01-08T12:33:50;8.93;;;2.10;;
54937;SDS011;52756;52.826;6.214;2023-01-08T12:36:23;10.20;;;1.98;;
54937;SDS011;52756;52.826;6.214;2023-01-08T12:38:59;9.55;;;2.42;;
54937;SDS011;52756;52.826;6.214;2023-01-08T12:41:30;9.52;;;2.13;;
54937;SDS011;52756;52.826;6.214;2023-01-08T12:44:00;13.70;;;2.55;;
54937;SDS011;52756;52.826;6.214;2023-01-08T12:46:30;7.07;;;2.28;;
54937;SDS011;52756;52.826;6.214;2023-01-08T12:49:03;9.65;;;2.28;;
54937;SDS011;52756;52.826;6.214;2023-01-08T12:54:13;5.80;;;1.42;;
54937;SDS011;52756;52.826;6.214;2023-01-08T12:56:59;10.68;;;2.58;;
54937;SDS011;52756;52.826;6.214;2023-01-08T12:59:30;10.55;;;2.60;;
54937;SDS011;52756;52.826;6.214;2023-01-08T13:02:05;9.45;;;2.03;;
54937;SDS011;52756;52.826;6.214;2023-01-08T13:04:44;9.27;;;2.03;;
54937;SDS011;52756;52.826;6.214;2023-01-08T13:07:15;6.85;;;1.67;;
54937;SDS011;52756;52.826;6.214;2023-01-08T13:09:52;8.10;;;1.80;;
54937;SDS011;52756;52.826;6.214;2023-01-08T13:12:32;9.18;;;2.08;;
54937;SDS011;52756;52.826;6.214;2023-01-08T13:15:04;5.35;;;2.10;;
54937;SDS011;52756;52.826;6.214;2023-01-08T13:17:31;7.53;;;1.83;;
54937;SDS011;52756;52.826;6.214;2023-01-08T13:20:01;6.95;;;1.83;;
54937;SDS011;52756;52.826;6.214;2023-01-08T13:22:34;5.63;;;1.45;;
54937;SDS011;52756;52.826;6.214;2023-01-08T13:27:39;7.55;;;1.80;;
54937;SDS011;52756;52.826;6.214;2023-01-08T13:30:50;7.13;;;2.00;;
54937;SDS011;52756;52.826;6.214;2023-01-08T13:32:57;8.10;;;1.60;;
54937;SDS011;52756;52.826;6.214;2023-01-08T13:35:27;13.30;;;1.80;;
54937;SDS011;52756;52.826;6.214;2023-01-08T13:40:36;8.30;;;1.83;;
54937;SDS011;52756;52.826;6.214;2023-01-08T13:45:38;6.05;;;1.52;;
54937;SDS011;52756;52.826;6.214;2023-01-08T13:48:05;7.25;;;1.75;;
54937;SDS011;52756;52.826;6.214;2023-01-08T13:50:45;6.68;;;1.38;;
54937;SDS011;52756;52.826;6.214;2023-01-08T13:53:11;5.57;;;1.00;;
54937;SDS011;52756;52.826;6.214;2023-01-08T13:55:38;6.43;;;1.45;;
54937;SDS011;52756;52.826;6.214;2023-01-08T13:58:17;4.63;;;1.27;;
54937;SDS011;52756;52.826;6.214;2023-01-08T14:00:48;6.30;;;1.50;;
54937;SDS011;52756;52.826;6.214;2023-01-08T14:03:23;8.13;;;1.45;;
54937;SDS011;52756;52.826;6.214;2023-01-08T14:06:04;5.75;;;1.60;;
54937;SDS011;52756;52.826;6.214;2023-01-08T14:11:21;3.47;;;0.95;;
54937;SDS011;52756;52.826;6.214;2023-01-08T14:13:51;4.00;;;1.27;;
54937;SDS011;52756;52.826;6.214;2023-01-08T14:16:17;4.85;;;1.10;;
54937;SDS011;52756;52.826;6.214;2023-01-08T14:18:45;5.28;;;1.00;;
54937;SDS011;52756;52.826;6.214;2023-01-08T14:21:11;4.25;;;1.20;;
54937;SDS011;52756;52.826;6.214;2023-01-08T14:23:39;4.50;;;0.90;;
54937;SDS011;52756;52.826;6.214;2023-01-08T14:29:01;6.47;;;1.25;;
54937;SDS011;52756;52.826;6.214;2023-01-08T14:31:33;2.88;;;1.02;;
54937;SDS011;52756;52.826;6.214;2023-01-08T14:33:59;5.95;;;1.48;;
54937;SDS011;52756;52.826;6.214;2023-01-08T14:36:25;3.03;;;1.00;;
54937;SDS011;52756;52.826;6.214;2023-01-08T14:38:51;3.22;;;0.90;;
54937;SDS011;52756;52.826;6.214;2023-01-08T14:41:25;3.33;;;0.80;;
54937;SDS011;52756;52.826;6.214;2023-01-08T14:44:15;6.38;;;1.20;;
54937;SDS011;52756;52.826;6.214;2023-01-08T14:46:41;3.03;;;1.10;;
54937;SDS011;52756;52.826;6.214;2023-01-08T14:49:11;4.50;;;1.25;;
54937;SDS011;52756;52.826;6.214;2023-01-08T14:51:44;3.22;;;0.80;;
54937;SDS011;52756;52.826;6.214;2023-01-08T14:54:12;3.72;;;0.98;;
54937;SDS011;52756;52.826;6.214;2023-01-08T14:56:44;3.00;;;0.68;;
54937;SDS011;52756;52.826;6.214;2023-01-08T14:59:14;2.95;;;0.98;;
54937;SDS011;52756;52.826;6.214;2023-01-08T15:01:49;4.90;;;1.23;;
54937;SDS011;52756;52.826;6.214;2023-01-08T15:04:20;4.05;;;1.00;;
54937;SDS011;52756;52.826;6.214;2023-01-08T15:06:46;2.92;;;1.33;;
54937;SDS011;52756;52.826;6.214;2023-01-08T15:09:35;5.28;;;0.98;;
54937;SDS011;52756;52.826;6.214;2023-01-08T15:12:06;3.10;;;1.10;;
54937;SDS011;52756;52.826;6.214;2023-01-08T15:14:51;3.67;;;1.27;;
54937;SDS011;52756;52.826;6.214;2023-01-08T15:17:19;2.67;;;1.05;;
54937;SDS011;52756;52.826;6.214;2023-01-08T15:19:48;4.50;;;1.10;;
54937;SDS011;52756;52.826;6.214;2023-01-08T15:22:23;3.80;;;1.10;;
54937;SDS011;52756;52.826;6.214;2023-01-08T15:27:28;5.60;;;1.10;;
54937;SDS011;52756;52.826;6.214;2023-01-08T15:30:01;3.05;;;0.80;;
54937;SDS011;52756;52.826;6.214;2023-01-08T15:32:32;2.70;;;0.80;;
54937;SDS011;52756;52.826;6.214;2023-01-08T15:35:01;1.85;;;0.73;;
54937;SDS011;52756;52.826;6.214;2023-01-08T15:37:40;3.67;;;1.00;;
54937;SDS011;52756;52.826;6.214;2023-01-08T15:40:06;4.07;;;1.00;;
54937;SDS011;52756;52.826;6.214;2023-01-08T15:42:33;1.98;;;0.70;;
54937;SDS011;52756;52.826;6.214;2023-01-08T15:45:19;3.55;;;0.85;;
54937;SDS011;52756;52.826;6.214;2023-01-08T15:47:46;4.15;;;0.90;;
54937;SDS011;52756;52.826;6.214;2023-01-08T15:50:12;4.63;;;1.35;;
54937;SDS011;52756;52.826;6.214;2023-01-08T15:52:39;2.90;;;0.90;;
54937;SDS011;52756;52.826;6.214;2023-01-08T15:55:06;3.28;;;0.90;;
54937;SDS011;52756;52.826;6.214;2023-01-08T15:57:35;3.95;;;1.17;;
54937;SDS011;52756;52.826;6.214;2023-01-08T16:00:00;3.53;;;1.33;;
54937;SDS011;52756;52.826;6.214;2023-01-08T16:02:26;2.35;;;1.05;;
54937;SDS011;52756;52.826;6.214;2023-01-08T16:04:52;2.38;;;0.88;;
54937;SDS011;52756;52.826;6.214;2023-01-08T16:07:19;2.65;;;1.15;;
54937;SDS011;52756;52.826;6.214;2023-01-08T16:09:45;6.15;;;2.38;;
54937;SDS011;52756;52.826;6.214;2023-01-08T16:12:10;5.55;;;2.22;;
54937;SDS011;52756;52.826;6.214;2023-01-08T16:14:36;3.78;;;1.90;;
54937;SDS011;52756;52.826;6.214;2023-01-08T16:17:02;5.03;;;1.88;;
54937;SDS011;52756;52.826;6.214;2023-01-08T16:19:29;4.35;;;2.03;;
54937;SDS011;52756;52.826;6.214;2023-01-08T16:21:55;2.67;;;1.23;;
54937;SDS011;52756;52.826;6.214;2023-01-08T16:24:22;4.07;;;1.40;;
54937;SDS011;52756;52.826;6.214;2023-01-08T16:26:48;4.45;;;1.58;;
54937;SDS011;52756;52.826;6.214;2023-01-08T16:29:13;4.10;;;1.42;;
54937;SDS011;52756;52.826;6.214;2023-01-08T16:31:43;3.13;;;1.23;;
54937;SDS011;52756;52.826;6.214;2023-01-08T16:34:10;2.60;;;1.17;;